createdAt,value
2023-03-23T16:00:20.008Z,14.32
2023-03-23T16:04:22.357Z,14.27
2023-03-23T16:08:24.421Z,14.29
2023-03-23T16:12:26.406Z,14.20
2023-03-23T16:16:33.994Z,14.08
2023-03-23T16:20:36.493Z,14.02
2023-03-23T16:24:38.569Z,13.95
2023-03-23T16:28:41.209Z,13.79
2023-03-23T16:32:43.713Z,13.73
2023-03-23T16:36:45.807Z,13.61
2023-03-23T16:40:47.794Z,13.47
2023-03-23T16:44:50.896Z,13.32
2023-03-23T16:48:52.920Z,13.21
2023-03-23T16:52:55.462Z,13.12
2023-03-23T16:56:57.509Z,12.97
2023-03-23T17:01:01.029Z,12.82
2023-03-23T17:05:03.674Z,12.68
2023-03-23T17:09:06.410Z,12.58
2023-03-23T17:13:08.963Z,12.62
2023-03-23T17:17:10.946Z,12.63
2023-03-23T17:21:12.964Z,12.59
2023-03-23T17:25:15.427Z,12.51
2023-03-23T17:29:17.705Z,12.46
2023-03-23T17:33:19.855Z,12.38
2023-03-23T17:37:22.341Z,12.32
2023-03-23T17:41:24.371Z,12.20
2023-03-23T17:45:26.608Z,12.14
2023-03-23T17:49:30.292Z,12.09
2023-03-23T17:53:34.964Z,12.07
2023-03-23T17:57:36.951Z,12.03
2023-03-23T18:01:38.949Z,11.94
2023-03-23T18:05:41.070Z,11.86
2023-03-23T18:09:45.288Z,11.85
2023-03-23T18:13:47.927Z,11.84
2023-03-23T18:17:51.084Z,11.78
2023-03-23T18:21:53.130Z,11.71
2023-03-23T18:25:55.728Z,11.76
2023-03-23T18:29:58.378Z,11.79
2023-03-23T18:34:00.432Z,11.83
2023-03-23T18:38:02.508Z,11.76
2023-03-23T18:42:05.892Z,11.74
2023-03-23T18:46:08.375Z,11.70
2023-03-23T18:50:11.178Z,11.70
2023-03-23T18:54:13.433Z,11.70
2023-03-23T18:58:16.628Z,11.72
2023-03-23T19:02:20.392Z,11.72
2023-03-23T19:06:25.219Z,11.71
2023-03-23T19:10:27.916Z,11.74
2023-03-23T19:14:29.914Z,11.76
2023-03-23T19:18:31.982Z,11.76
2023-03-23T19:22:33.999Z,11.73
2023-03-23T19:26:44.277Z,11.70
2023-03-23T19:30:48.753Z,11.58
2023-03-23T19:34:51.415Z,11.48
2023-03-23T19:38:54.519Z,11.38
2023-03-23T19:42:57.460Z,11.31
2023-03-23T19:46:59.637Z,11.26
2023-03-23T19:51:02.397Z,11.20
2023-03-23T19:55:04.651Z,11.20
2023-03-23T19:59:10.549Z,11.15
2023-03-23T20:03:13.002Z,11.09
2023-03-23T20:07:15.470Z,11.04
2023-03-23T20:11:19.164Z,11.00
2023-03-23T20:15:21.372Z,11.01
2023-03-23T20:19:23.600Z,11.08
2023-03-23T20:23:25.679Z,11.16
2023-03-23T20:27:27.913Z,11.23
2023-03-23T20:31:35.886Z,11.27
2023-03-23T20:35:38.715Z,11.28
2023-03-23T20:39:41.632Z,11.34
2023-03-23T20:43:44.983Z,11.31
2023-03-23T20:47:47.112Z,11.28
2023-03-23T20:51:49.816Z,11.28
2023-03-23T20:55:52.151Z,11.31
2023-03-23T20:59:55.649Z,11.31
2023-03-23T21:04:00.185Z,11.31
2023-03-23T21:08:02.326Z,11.47
2023-03-23T21:12:04.461Z,11.66
2023-03-23T21:16:07.510Z,11.58
2023-03-23T21:20:10.976Z,11.46
2023-03-23T21:24:13.070Z,11.38
2023-03-23T21:28:15.364Z,11.33
2023-03-23T21:32:17.348Z,11.27
2023-03-23T21:36:19.401Z,11.24
2023-03-23T21:40:21.525Z,11.23
2023-03-23T21:44:23.685Z,11.22
2023-03-23T21:48:29.515Z,11.22
2023-03-23T21:52:32.620Z,11.25
2023-03-23T21:56:34.651Z,11.24
2023-03-23T22:00:36.831Z,11.22
2023-03-23T22:04:38.815Z,11.17
2023-03-23T22:08:43.352Z,11.15
2023-03-23T22:12:45.613Z,11.14
2023-03-23T22:16:47.826Z,11.14
2023-03-23T22:20:49.819Z,11.15
2023-03-23T22:24:51.982Z,11.16
2023-03-23T22:28:54.577Z,11.14
2023-03-23T22:32:57.654Z,11.17
2023-03-23T22:36:59.730Z,11.20
2023-03-23T22:41:04.491Z,11.29
2023-03-23T22:45:10.252Z,11.40
2023-03-23T22:49:12.676Z,11.49
2023-03-23T22:53:16.228Z,11.57
2023-03-23T22:57:18.404Z,11.66
2023-03-23T23:01:22.200Z,11.69
2023-03-23T23:05:24.316Z,11.69
2023-03-23T23:09:27.362Z,11.67
2023-03-23T23:13:31.236Z,11.60
2023-03-23T23:17:35.005Z,11.97
2023-03-23T23:21:37.169Z,11.92
2023-03-23T23:25:39.328Z,11.77
2023-03-23T23:29:41.418Z,11.65
2023-03-23T23:33:43.403Z,11.58
2023-03-23T23:37:46.074Z,11.49
2023-03-23T23:41:48.083Z,11.44
2023-03-23T23:45:50.487Z,11.38
2023-03-23T23:49:52.585Z,11.34
2023-03-23T23:53:58.916Z,11.28
2023-03-23T23:58:01.369Z,11.25
